createdAt,value
2023-02-15T00:02:38.958Z,3.66
2023-02-15T00:06:43.266Z,3.58
2023-02-15T00:10:43.836Z,3.46
2023-02-15T00:14:47.124Z,3.64
2023-02-15T00:18:47.560Z,3.49
2023-02-15T00:22:48.646Z,3.65
2023-02-15T00:26:51.731Z,3.54
2023-02-15T00:30:55.301Z,3.63
2023-02-15T00:34:57.361Z,3.31
2023-02-15T00:38:58.370Z,3.42
2023-02-15T00:42:59.743Z,3.54
2023-02-15T00:47:02.910Z,3.32
2023-02-15T00:51:05.348Z,3.55
2023-02-15T00:55:06.162Z,3.48
2023-02-15T00:59:06.879Z,3.59
2023-02-15T01:03:10.719Z,3.58
2023-02-15T01:07:11.284Z,3.47
2023-02-15T01:11:16.296Z,3.18
2023-02-15T01:15:17.153Z,3.13
2023-02-15T01:19:20.832Z,3.08
2023-02-15T01:23:21.068Z,3.20
2023-02-15T01:27:21.674Z,3.27
2023-02-15T01:31:25.108Z,3.38
2023-02-15T01:35:28.867Z,3.23
2023-02-15T01:39:29.912Z,2.95
2023-02-15T01:43:44.952Z,3.06
2023-02-15T01:47:51.648Z,3.00
2023-02-15T01:51:56.305Z,2.84
2023-02-15T01:56:04.885Z,2.71
2023-02-15T02:00:10.080Z,2.83
2023-02-15T02:04:20.945Z,2.66
2023-02-15T02:08:24.143Z,2.67
2023-02-15T02:12:27.623Z,2.66
2023-02-15T02:16:38.480Z,2.86
2023-02-15T02:21:12.267Z,2.74
2023-02-15T02:25:45.410Z,2.81
2023-02-15T02:30:52.100Z,2.79
2023-02-15T02:35:05.354Z,2.88
2023-02-15T02:39:32.872Z,2.91
2023-02-15T02:43:42.300Z,2.67
2023-02-15T02:47:51.134Z,2.75
2023-02-15T02:52:06.950Z,2.73
2023-02-15T02:56:23.321Z,2.81
2023-02-15T03:00:27.552Z,2.91
2023-02-15T03:04:35.398Z,2.73
2023-02-15T03:08:49.267Z,2.71
2023-02-15T03:12:50.402Z,2.80
2023-02-15T03:16:55.345Z,2.93
2023-02-15T03:20:59.354Z,2.83
2023-02-15T03:25:10.889Z,2.91
2023-02-15T03:29:14.438Z,2.90
2023-02-15T03:33:17.225Z,3.01
2023-02-15T03:37:29.855Z,2.92
2023-02-15T03:41:41.304Z,2.67
2023-02-15T03:45:55.889Z,2.91
2023-02-15T03:50:25.580Z,2.75
2023-02-15T03:54:42.493Z,2.91
2023-02-15T03:58:58.086Z,2.87
2023-02-15T04:03:24.313Z,2.84
2023-02-15T04:07:25.011Z,2.77
2023-02-15T04:11:23.034Z,2.85
2023-02-15T04:15:38.416Z,2.91
2023-02-15T04:19:51.522Z,2.92
2023-02-15T04:24:04.247Z,2.85
2023-02-15T04:28:05.185Z,2.81
2023-02-15T04:32:08.681Z,2.85
2023-02-15T04:36:10.315Z,2.83
2023-02-15T04:40:13.703Z,2.77
2023-02-15T04:44:14.661Z,2.69
2023-02-15T04:48:19.340Z,2.83
2023-02-15T04:52:20.777Z,2.83
2023-02-15T04:56:21.302Z,2.67
2023-02-15T05:00:25.070Z,2.66
2023-02-15T05:04:28.487Z,2.68
2023-02-15T05:08:28.971Z,2.60
2023-02-15T05:12:30.777Z,2.56
2023-02-15T05:16:31.433Z,2.31
2023-02-15T05:20:36.065Z,2.42
2023-02-15T05:24:49.218Z,2.39
2023-02-15T05:28:49.533Z,2.38
2023-02-15T05:32:50.142Z,2.36
2023-02-15T05:36:53.448Z,2.52
2023-02-15T05:40:56.307Z,2.49
2023-02-15T05:44:56.609Z,2.49
2023-02-15T05:48:57.272Z,2.53
2023-02-15T05:53:00.647Z,2.52
2023-02-15T05:57:01.860Z,2.38
2023-02-15T06:01:03.198Z,2.35
2023-02-15T06:05:05.026Z,2.50
2023-02-15T06:09:07.970Z,2.40
2023-02-15T06:13:08.368Z,2.38
2023-02-15T06:17:08.635Z,2.46
2023-02-15T06:21:09.190Z,2.42
2023-02-15T06:25:20.128Z,2.24
2023-02-15T06:29:20.597Z,2.12
2023-02-15T06:33:21.503Z,2.05
2023-02-15T06:37:22.664Z,1.90
2023-02-15T06:41:26.934Z,1.91
2023-02-15T06:45:27.574Z,1.92
2023-02-15T06:49:27.950Z,1.75
2023-02-15T06:53:28.518Z,1.73
2023-02-15T06:57:31.528Z,1.99
2023-02-15T07:01:31.877Z,1.92
2023-02-15T07:05:32.745Z,1.90
2023-02-15T07:09:33.153Z,2.09
2023-02-15T07:13:37.666Z,2.20
2023-02-15T07:17:38.257Z,2.04
2023-02-15T07:21:38.901Z,1.98
2023-02-15T07:25:39.334Z,1.97
2023-02-15T07:29:42.178Z,2.08
2023-02-15T07:33:42.670Z,2.04
2023-02-15T07:37:43.067Z,2.23
2023-02-15T07:41:43.322Z,2.11
2023-02-15T07:45:48.736Z,2.25
2023-02-15T07:49:50.483Z,2.31
2023-02-15T07:53:52.669Z,2.23
2023-02-15T07:57:55.605Z,2.38
2023-02-15T08:01:58.770Z,2.32
2023-02-15T08:06:02.492Z,2.22
2023-02-15T08:10:03.259Z,2.41
2023-02-15T08:14:06.447Z,2.38
2023-02-15T08:18:09.554Z,2.55
2023-02-15T08:22:12.259Z,2.61
2023-02-15T08:26:12.985Z,2.83
2023-02-15T08:30:15.669Z,2.39
2023-02-15T08:34:22.234Z,2.71
2023-02-15T08:38:22.897Z,2.86
2023-02-15T08:42:24.272Z,2.97
2023-02-15T08:46:27.966Z,2.74
2023-02-15T08:50:31.745Z,2.79
2023-02-15T08:54:32.409Z,2.84
2023-02-15T08:58:34.710Z,3.14
2023-02-15T09:02:34.936Z,3.11
2023-02-15T09:06:38.770Z,3.06
2023-02-15T09:10:39.460Z,3.09
2023-02-15T09:14:40.074Z,3.33
2023-02-15T09:18:42.756Z,3.32
2023-02-15T09:22:46.030Z,3.46
2023-02-15T09:26:51.575Z,3.45
2023-02-15T09:30:52.230Z,3.53
2023-02-15T09:34:54.883Z,3.72
2023-02-15T09:39:05.156Z,3.84
2023-02-15T09:43:28.797Z,4.13
2023-02-15T09:48:13.498Z,4.13
2023-02-15T09:52:54.112Z,4.15
2023-02-15T09:57:04.748Z,4.30
2023-02-15T10:01:16.408Z,4.45
2023-02-15T10:05:39.129Z,4.28
2023-02-15T10:10:04.343Z,4.71
2023-02-15T10:14:49.136Z,4.54
2023-02-15T10:19:03.348Z,4.89
2023-02-15T10:23:37.135Z,4.10
2023-02-15T10:27:47.812Z,4.91
2023-02-15T10:31:56.203Z,5.02
2023-02-15T10:36:13.168Z,4.63
2023-02-15T10:40:31.386Z,5.21
2023-02-15T10:44:51.249Z,4.97
2023-02-15T10:49:21.637Z,5.59
2023-02-15T10:53:47.199Z,5.55
2023-02-15T10:58:07.189Z,5.45
2023-02-15T11:02:26.880Z,5.81
2023-02-15T11:06:31.806Z,5.72
2023-02-15T11:10:42.414Z,5.79
2023-02-15T11:14:55.194Z,5.87
2023-02-15T11:19:06.403Z,6.01
2023-02-15T11:23:19.679Z,5.32
2023-02-15T11:27:28.114Z,5.25
2023-02-15T11:31:46.541Z,5.64
2023-02-15T11:35:55.752Z,5.79
2023-02-15T11:39:58.963Z,6.15
2023-02-15T11:44:09.061Z,6.10
2023-02-15T11:48:16.489Z,6.09
2023-02-15T11:52:21.415Z,5.93
2023-02-15T11:56:29.037Z,5.34
2023-02-15T12:00:39.688Z,5.51
2023-02-15T12:04:48.241Z,5.62
2023-02-15T12:08:58.685Z,5.73
2023-02-15T12:13:20.363Z,5.66
2023-02-15T12:17:22.010Z,5.70
2023-02-15T12:21:34.124Z,6.01
2023-02-15T12:25:41.742Z,6.05
2023-02-15T12:29:53.366Z,6.22
2023-02-15T12:33:58.457Z,5.95
2023-02-15T12:38:05.879Z,5.97
2023-02-15T12:42:18.425Z,6.22
2023-02-15T12:46:27.858Z,6.40
2023-02-15T12:50:36.113Z,5.96
2023-02-15T12:54:43.883Z,6.15
2023-02-15T12:58:47.101Z,6.00
2023-02-15T13:02:54.198Z,6.44
2023-02-15T13:06:58.103Z,6.38
2023-02-15T13:11:03.728Z,6.51
2023-02-15T13:15:06.066Z,6.39
2023-02-15T13:19:18.333Z,6.70
2023-02-15T13:23:31.280Z,6.53
2023-02-15T13:27:41.255Z,6.01
2023-02-15T13:31:44.654Z,5.78
2023-02-15T13:36:00.252Z,5.88
2023-02-15T13:40:11.620Z,5.82
2023-02-15T13:44:25.769Z,5.60
2023-02-15T13:48:50.852Z,5.43
2023-02-15T13:53:02.336Z,5.53
2023-02-15T13:57:30.273Z,5.71
2023-02-15T14:01:44.600Z,5.50
2023-02-15T14:06:18.791Z,5.52
2023-02-15T14:10:42.006Z,5.69
2023-02-15T14:15:12.056Z,5.71
2023-02-15T14:19:29.631Z,5.89
2023-02-15T14:23:46.072Z,5.93
2023-02-15T14:28:03.852Z,5.77
2023-02-15T14:32:15.985Z,5.96
2023-02-15T14:36:23.634Z,5.80
2023-02-15T14:40:50.985Z,5.53
2023-02-15T14:45:05.112Z,5.81
2023-02-15T14:49:15.490Z,5.43
2023-02-15T14:53:43.340Z,5.38
2023-02-15T14:57:43.649Z,5.14
2023-02-15T15:01:59.328Z,5.52
2023-02-15T15:06:05.932Z,5.32
2023-02-15T15:10:30.503Z,5.48
2023-02-15T15:14:47.380Z,4.91
2023-02-15T15:18:52.790Z,5.22
2023-02-15T15:22:53.889Z,5.29
2023-02-15T15:27:44.060Z,5.44
2023-02-15T15:31:54.551Z,5.23
2023-02-15T15:36:42.988Z,5.29
2023-02-15T15:41:22.050Z,5.35
2023-02-15T15:46:03.249Z,5.23
2023-02-15T15:50:05.444Z,5.11
2023-02-15T15:54:08.737Z,4.90
2023-02-15T15:58:12.008Z,4.87
2023-02-15T16:02:19.557Z,5.02
2023-02-15T16:06:32.667Z,4.83
2023-02-15T16:10:39.058Z,4.91
2023-02-15T16:14:42.682Z,4.65
2023-02-15T16:18:44.603Z,4.45
2023-02-15T16:22:45.291Z,4.34
2023-02-15T16:27:34.996Z,4.42
2023-02-15T16:31:35.371Z,4.42
2023-02-15T16:35:37.525Z,4.37
2023-02-15T16:39:46.169Z,4.30
2023-02-15T16:43:53.421Z,4.32
2023-02-15T16:48:03.145Z,4.30
2023-02-15T16:52:08.137Z,4.16
2023-02-15T16:56:10.337Z,4.22
2023-02-15T17:00:24.560Z,4.22
2023-02-15T17:04:35.655Z,4.10
2023-02-15T17:08:45.283Z,4.06
2023-02-15T17:12:51.702Z,4.09
2023-02-15T17:17:05.152Z,4.01
2023-02-15T17:21:16.266Z,3.85
2023-02-15T17:25:27.834Z,4.06
2023-02-15T17:29:38.433Z,3.97
2023-02-15T17:33:43.822Z,4.01
2023-02-15T17:37:50.650Z,3.84
2023-02-15T17:41:54.073Z,3.90
2023-02-15T17:45:56.882Z,3.91
2023-02-15T17:50:00.469Z,3.65
2023-02-15T17:54:16.167Z,3.84
2023-02-15T17:58:22.863Z,3.75
2023-02-15T18:02:37.546Z,3.75
2023-02-15T18:06:57.035Z,3.61
2023-02-15T18:11:14.718Z,3.72
2023-02-15T18:15:15.209Z,3.73
2023-02-15T18:19:23.576Z,3.66
2023-02-15T18:23:26.565Z,3.63
2023-02-15T18:27:27.070Z,3.70
2023-02-15T18:31:28.774Z,3.50
2023-02-15T18:35:34.012Z,3.48
2023-02-15T18:39:45.720Z,3.46
2023-02-15T18:43:49.051Z,3.28
2023-02-15T18:47:51.030Z,3.21
2023-02-15T18:51:51.355Z,3.27
2023-02-15T18:55:55.005Z,3.13
2023-02-15T18:59:55.578Z,3.03
2023-02-15T19:03:57.192Z,3.22
2023-02-15T19:07:58.753Z,3.38
2023-02-15T19:12:03.072Z,3.30
2023-02-15T19:16:06.542Z,3.47
2023-02-15T19:20:08.180Z,3.39
2023-02-15T19:24:18.129Z,3.24
2023-02-15T19:28:32.779Z,3.22
2023-02-15T19:32:33.803Z,3.30
2023-02-15T19:36:40.675Z,3.36
2023-02-15T19:40:41.557Z,3.35
2023-02-15T19:44:45.224Z,3.30
2023-02-15T19:48:45.754Z,3.22
2023-02-15T19:52:47.462Z,3.22
2023-02-15T19:56:48.166Z,2.84
2023-02-15T20:00:53.887Z,2.95
2023-02-15T20:04:55.180Z,2.97
2023-02-15T20:09:02.934Z,3.07
2023-02-15T20:13:05.366Z,2.82
2023-02-15T20:17:10.264Z,2.95
2023-02-15T20:21:18.863Z,2.97
2023-02-15T20:25:25.038Z,3.09
2023-02-15T20:29:26.569Z,3.08
2023-02-15T20:33:29.977Z,2.73
2023-02-15T20:37:35.186Z,2.99
2023-02-15T20:41:40.238Z,3.11
2023-02-15T20:45:40.567Z,2.82
2023-02-15T20:49:44.096Z,2.90
2023-02-15T20:53:46.364Z,2.88
2023-02-15T20:57:47.345Z,3.06
2023-02-15T21:01:49.547Z,2.92
2023-02-15T21:05:53.125Z,2.90
2023-02-15T21:09:54.561Z,2.83
2023-02-15T21:13:55.211Z,2.59
2023-02-15T21:17:55.875Z,2.53
2023-02-15T21:22:01.779Z,2.67
2023-02-15T21:26:02.913Z,2.39
2023-02-15T21:30:06.855Z,2.22
2023-02-15T21:34:08.040Z,2.02
2023-02-15T21:38:18.626Z,2.18
2023-02-15T21:42:31.359Z,2.23
2023-02-15T21:46:44.264Z,2.21
2023-02-15T21:50:57.723Z,2.18
2023-02-15T21:55:03.300Z,2.00
2023-02-15T21:59:04.021Z,2.06
2023-02-15T22:03:04.832Z,2.21
2023-02-15T22:07:05.317Z,2.35
2023-02-15T22:11:16.207Z,2.47
2023-02-15T22:15:24.200Z,2.40
2023-02-15T22:19:24.614Z,2.20
2023-02-15T22:23:25.703Z,2.17
2023-02-15T22:27:31.725Z,2.29
2023-02-15T22:31:32.445Z,2.40
2023-02-15T22:35:37.518Z,2.50
2023-02-15T22:39:37.996Z,2.48
2023-02-15T22:43:45.099Z,2.37
2023-02-15T22:47:45.590Z,2.59
2023-02-15T22:51:47.576Z,2.32
2023-02-15T22:55:50.066Z,2.40
2023-02-15T22:59:53.431Z,2.45
2023-02-15T23:03:53.812Z,2.56
2023-02-15T23:07:54.756Z,2.43
2023-02-15T23:11:57.055Z,2.44
2023-02-15T23:16:04.435Z,2.52
2023-02-15T23:20:04.972Z,2.54
2023-02-15T23:24:22.587Z,2.50
2023-02-15T23:28:29.231Z,2.21
2023-02-15T23:32:34.077Z,2.12
2023-02-15T23:36:37.634Z,2.36
2023-02-15T23:40:50.292Z,2.18
2023-02-15T23:44:51.924Z,2.19
2023-02-15T23:48:56.875Z,2.18
2023-02-15T23:52:59.083Z,2.25
2023-02-15T23:57:04.446Z,2.42
